Terminal Aerodrome Forecast
Issued by NWS Missoula, MT

Home | Current Version | Previous Version | Text Only | Print | Product List | Glossary On
Versions: 1 2 3 4 5 6 7 8 9 10 11 12 13 14 15 16 17 18 19 20 21 22 23
000
FTUS45 KMSO 291720
TAFMSO
TAF
KMSO 291720Z 2918/3018 00000KT 3SM BR SCT002
     FM291900 00000KT 6SM HZ SKC
     FM301100 00000KT 2SM BR SCT002=

USA.gov is the U.S. government's official web portal to all federal, state and local government web resources and services.